KDSM

Des Moines International Airport

Des Moines, Iowa, USA
KDSM 171120Z 1712/1812 VRB04KT P6SM SKC
Issued Valid From Valid To
Dec-17 @ 11:20 UTC
(an hour ago)
Dec-17 @ 12:00 UTC
(25 minutes ago)
Dec-18 @ 12:00 UTC
(in 24 hours)
Dec-17 @ 12:00 to Dec-18 @ 12:00
KDSM 171120Z 1712/1812 VRB04KT P6SM SKC
Wind Visibility Clouds
Variable at 4 knots Greater than 6 miles
  • Clear skies
KDSM 171120Z 1712/1812 VRB04KT P6SM SKC
Issued Dec-17 @ 11:20 UTC
(an hour ago)
Valid From Dec-17 @ 12:00 UTC
(25 minutes ago)
Valid To Dec-18 @ 12:00 UTC
(in 24 hours)
Dec-17 @ 12:00 - Dec-18 @ 12:00
Wind Visibility
Variable at 4 knots Greater than 6 miles
Clouds
  • Clear skies